KRDG/RDG METAR and TAF weather

Enter ICAO airport designator
Station Type Date Time Source
KRDG METAR 2019/08/25 19:54 UTC NOAA

KRDG 251954Z 13009G14KT 10SM SCT048 26/13 A3019 RMK AO2 SLP227 T02560133 $


Station Type Date Time Source
KRDG Decoded METAR 2019/08/25 19:54 UTC NOAA

Station name not available
Aug 25, 2019 - 03:54 PM EDT / 2019.08.25 1954 UTC
Wind: from the SE (130 degrees) at 10 MPH (9 KT) gusting to 16 MPH (14 KT):0
Visibility: 10 mile(s):0
Sky conditions: partly cloudy
Temperature: 78.1 F (25.6 C)
Dew Point: 55.9 F (13.3 C)
Relative Humidity: 46%
Pressure (altimeter): 30.19 in. Hg (1022 hPa)
ob: KRDG 251954Z 13009G14KT 10SM SCT048 26/13 A3019 RMK AO2 SLP227 T02560133
cycle: 20

Station Type Date Time Source
KRDG TAF 2019/08/25 18:22 UTC NOAA

TAF KRDG 251720Z 2518/2618 06011KT P6SM SCT030
FM260100 VRB04KT P6SM SCT040
FM261300 06007KT P6SM FEW250

Example: see airport list